createdAt,value
2023-04-18T00:00:55.507Z,28.68
2023-04-18T00:01:55.594Z,28.91
2023-04-18T00:02:55.755Z,29.31
2023-04-18T00:03:55.698Z,25.00
2023-04-18T00:04:55.827Z,28.69
2023-04-18T00:05:55.637Z,28.15
2023-04-18T00:06:55.638Z,30.86
2023-04-18T00:07:55.675Z,26.96
2023-04-18T00:08:55.742Z,27.64
2023-04-18T00:09:55.774Z,28.80
2023-04-18T00:10:55.761Z,27.10
2023-04-18T00:11:55.780Z,27.11
2023-04-18T00:12:55.801Z,28.84
2023-04-18T00:13:55.821Z,28.77
2023-04-18T00:14:55.871Z,30.56
2023-04-18T00:15:55.887Z,30.43
2023-04-18T00:16:55.951Z,31.37
2023-04-18T00:17:55.970Z,28.82
2023-04-18T00:18:55.950Z,28.74
2023-04-18T00:19:56.016Z,27.78
2023-04-18T00:20:55.999Z,30.39
2023-04-18T00:21:56.074Z,29.51
2023-04-18T00:22:56.057Z,28.46
2023-04-18T00:23:56.070Z,25.00
2023-04-18T00:24:56.143Z,32.03
2023-04-18T00:25:56.108Z,28.77
2023-04-18T00:26:56.158Z,30.87
2023-04-18T00:27:56.170Z,27.29
2023-04-18T00:28:56.228Z,28.89
2023-04-18T00:29:56.244Z,29.45
2023-04-18T00:30:56.339Z,26.09
2023-04-18T00:31:56.287Z,29.77
2023-04-18T00:32:56.339Z,28.59
2023-04-18T00:33:56.327Z,27.48
2023-04-18T00:34:56.397Z,28.01
2023-04-18T00:35:56.390Z,29.35
2023-04-18T00:36:56.384Z,25.97
2023-04-18T00:37:56.439Z,30.33
2023-04-18T00:38:56.450Z,29.30
2023-04-18T00:39:56.481Z,28.54
2023-04-18T00:40:56.512Z,27.10
2023-04-18T00:41:56.515Z,27.56
2023-04-18T00:42:56.540Z,27.46
2023-04-18T00:43:56.573Z,28.77
2023-04-18T00:44:56.613Z,27.77
2023-04-18T00:45:56.667Z,28.47
2023-04-18T00:46:56.637Z,28.05
2023-04-18T00:47:56.693Z,25.47
2023-04-18T00:48:56.685Z,28.07
2023-04-18T00:49:56.739Z,26.08
2023-04-18T00:50:56.739Z,26.40
2023-04-18T00:51:56.891Z,26.73
2023-04-18T00:52:56.788Z,33.10
2023-04-18T00:53:56.785Z,29.07
2023-04-18T00:54:56.867Z,31.13
2023-04-18T00:55:56.864Z,30.89
2023-04-18T00:56:56.966Z,32.73
2023-04-18T00:57:56.886Z,29.85
2023-04-18T00:58:56.941Z,31.35
2023-04-18T00:59:56.952Z,31.33
2023-04-18T01:00:56.963Z,32.68
2023-04-18T01:01:57.089Z,29.93
2023-04-18T01:02:57.123Z,27.78
2023-04-18T01:03:57.121Z,27.66
2023-04-18T01:04:57.057Z,27.27
2023-04-18T01:05:57.093Z,28.75
2023-04-18T01:06:57.115Z,28.18
2023-04-18T01:07:57.111Z,32.19
2023-04-18T01:08:57.198Z,30.23
2023-04-18T01:09:57.177Z,27.25
2023-04-18T01:10:57.203Z,28.03
2023-04-18T01:11:57.282Z,31.66
2023-04-18T01:12:57.286Z,27.45
2023-04-18T01:13:57.296Z,28.03
2023-04-18T01:14:57.381Z,27.88
2023-04-18T01:15:57.357Z,30.58
2023-04-18T01:16:57.383Z,28.72
2023-04-18T01:17:57.453Z,27.32
2023-04-18T01:18:57.401Z,26.21
2023-04-18T01:19:57.433Z,25.70
2023-04-18T01:20:57.430Z,29.30
2023-04-18T01:21:57.452Z,26.78
2023-04-18T01:22:57.493Z,30.22
2023-04-18T01:23:57.518Z,29.34
2023-04-18T01:24:57.552Z,27.97
2023-04-18T01:25:57.577Z,27.83
2023-04-18T01:26:57.580Z,27.88
2023-04-18T01:27:57.645Z,29.83
2023-04-18T01:28:57.656Z,27.30
2023-04-18T01:29:57.664Z,26.98
2023-04-18T01:30:57.752Z,26.78
2023-04-18T01:31:57.754Z,28.67
2023-04-18T01:32:57.786Z,28.71
2023-04-18T01:33:57.778Z,30.31
2023-04-18T01:34:57.808Z,29.23
2023-04-18T01:35:57.808Z,25.95
2023-04-18T01:36:57.841Z,26.03
2023-04-18T01:37:57.878Z,27.83
2023-04-18T01:38:57.895Z,27.96
2023-04-18T01:39:57.975Z,28.63
2023-04-18T01:40:57.936Z,29.44
2023-04-18T01:41:57.956Z,26.92
2023-04-18T01:42:57.988Z,30.31
2023-04-18T01:43:57.989Z,32.23
2023-04-18T01:44:58.044Z,29.41
2023-04-18T01:45:58.073Z,28.09
2023-04-18T01:46:58.129Z,28.25
2023-04-18T01:47:58.205Z,26.65
2023-04-18T01:48:58.130Z,27.55
2023-04-18T01:49:58.152Z,30.68
2023-04-18T01:50:58.163Z,29.69
2023-04-18T01:51:58.147Z,30.18
2023-04-18T01:52:58.224Z,28.18
2023-04-18T01:53:58.220Z,27.59
2023-04-18T01:54:58.229Z,28.00
2023-04-18T01:55:58.249Z,33.16
2023-04-18T01:56:58.299Z,26.74
2023-04-18T01:57:58.285Z,28.10
2023-04-18T01:58:58.334Z,25.09
2023-04-18T01:59:58.350Z,27.79
2023-04-18T02:00:58.368Z,27.91
2023-04-18T02:01:58.477Z,28.19
2023-04-18T02:02:58.553Z,27.88
2023-04-18T02:03:58.520Z,30.51
2023-04-18T02:04:58.452Z,29.36
2023-04-18T02:05:58.470Z,25.00
2023-04-18T02:06:58.515Z,26.80
2023-04-18T02:07:58.572Z,29.01
2023-04-18T02:08:58.547Z,32.13
2023-04-18T02:09:58.615Z,33.75
2023-04-18T02:10:58.597Z,32.56
2023-04-18T02:11:58.595Z,32.10
2023-04-18T02:12:58.646Z,30.84
2023-04-18T02:13:58.647Z,32.41
2023-04-18T02:14:58.672Z,28.25
2023-04-18T02:15:58.757Z,29.60
2023-04-18T02:16:58.766Z,31.19
2023-04-18T02:17:58.797Z,29.66
2023-04-18T02:18:58.790Z,28.72
2023-04-18T02:19:58.790Z,31.37
2023-04-18T02:20:58.800Z,32.40
2023-04-18T02:21:58.885Z,28.96
2023-04-18T02:22:58.848Z,31.86
2023-04-18T02:23:58.892Z,33.34
2023-04-18T02:24:58.893Z,27.44
2023-04-18T02:25:58.931Z,29.73
2023-04-18T02:26:58.949Z,29.28
2023-04-18T02:27:58.988Z,25.49
2023-04-18T02:28:59.010Z,32.38
2023-04-18T02:29:59.014Z,30.61
2023-04-18T02:30:59.048Z,29.11
2023-04-18T02:31:59.104Z,28.38
2023-04-18T02:32:59.203Z,30.91
2023-04-18T02:33:59.129Z,28.96
2023-04-18T02:34:59.163Z,30.07
2023-04-18T02:35:59.129Z,29.74
2023-04-18T02:36:59.178Z,30.60
2023-04-18T02:37:59.200Z,28.91
2023-04-18T02:38:59.231Z,31.72
2023-04-18T02:39:59.293Z,27.54
2023-04-18T02:40:59.272Z,29.59
2023-04-18T02:41:59.319Z,25.94
2023-04-18T02:42:59.326Z,30.33
2023-04-18T02:43:59.363Z,29.99
2023-04-18T02:44:59.344Z,26.09
2023-04-18T02:45:59.430Z,26.21
2023-04-18T02:46:59.416Z,31.29
2023-04-18T02:47:59.510Z,30.47
2023-04-18T02:48:59.491Z,27.20
2023-04-18T02:49:59.518Z,31.98
2023-04-18T02:50:59.528Z,29.46
2023-04-18T02:51:59.531Z,29.92
2023-04-18T02:52:59.580Z,29.10
2023-04-18T02:53:59.621Z,28.77
2023-04-18T02:54:59.633Z,25.95
2023-04-18T02:55:59.657Z,28.71
2023-04-18T02:56:59.628Z,27.56
2023-04-18T02:57:59.679Z,29.20
2023-04-18T02:58:59.695Z,29.09
2023-04-18T02:59:59.728Z,28.73
2023-04-18T03:00:59.784Z,27.15
2023-04-18T03:01:59.787Z,26.58
2023-04-18T03:02:59.990Z,28.13
2023-04-18T03:03:59.832Z,27.62
2023-04-18T03:04:59.913Z,27.61
2023-04-18T03:06:00.757Z,28.88
2023-04-18T03:06:59.929Z,33.19
2023-04-18T03:07:59.904Z,30.31
2023-04-18T03:08:59.932Z,30.50
2023-04-18T03:10:00.031Z,26.38
2023-04-18T03:10:59.962Z,28.79
2023-04-18T03:12:00.035Z,30.20
2023-04-18T03:13:00.044Z,27.71
2023-04-18T03:14:00.064Z,28.42
2023-04-18T03:15:00.112Z,26.99
2023-04-18T03:16:00.138Z,27.80
2023-04-18T03:17:00.141Z,28.19
2023-04-18T03:18:00.222Z,27.74
2023-04-18T03:19:00.156Z,27.48
2023-04-18T03:20:00.210Z,28.13
2023-04-18T03:21:00.236Z,32.00
2023-04-18T03:22:00.214Z,30.46
2023-04-18T03:23:00.255Z,28.40
2023-04-18T03:24:00.261Z,31.25
2023-04-18T03:25:00.373Z,31.83
2023-04-18T03:26:00.356Z,31.62
2023-04-18T03:27:00.345Z,28.20
2023-04-18T03:28:00.388Z,26.63
2023-04-18T03:29:00.403Z,30.97
2023-04-18T03:30:00.438Z,27.71
2023-04-18T03:31:00.488Z,25.00
2023-04-18T03:32:00.477Z,30.92
2023-04-18T03:33:00.571Z,32.20
2023-04-18T03:34:00.489Z,31.69
2023-04-18T03:35:00.524Z,30.73
2023-04-18T03:36:00.589Z,31.80
2023-04-18T03:37:00.586Z,28.98
2023-04-18T03:38:00.630Z,28.62
2023-04-18T03:39:00.628Z,26.48
2023-04-18T03:40:00.644Z,29.08
2023-04-18T03:41:00.694Z,25.52
2023-04-18T03:42:00.667Z,31.00
2023-04-18T03:43:00.758Z,31.93
2023-04-18T03:44:00.729Z,25.94
2023-04-18T03:45:00.775Z,27.45
2023-04-18T03:46:00.844Z,29.56
2023-04-18T03:47:00.817Z,28.60
2023-04-18T03:48:01.888Z,29.55
2023-04-18T03:49:00.872Z,29.36
2023-04-18T03:50:00.936Z,27.40
2023-04-18T03:51:00.932Z,31.93
2023-04-18T03:52:00.955Z,30.08
2023-04-18T03:53:00.998Z,29.07
2023-04-18T03:54:00.987Z,32.43
2023-04-18T03:55:01.010Z,31.26
2023-04-18T03:56:00.994Z,28.37
2023-04-18T03:57:01.067Z,28.13
2023-04-18T03:58:01.075Z,31.01
2023-04-18T03:59:01.082Z,25.16
2023-04-18T04:00:01.113Z,30.46
2023-04-18T04:01:01.137Z,30.40
2023-04-18T04:02:01.230Z,26.46
2023-04-18T04:03:01.394Z,29.13
2023-04-18T04:04:01.264Z,25.04
2023-04-18T04:05:01.254Z,25.92
2023-04-18T04:06:01.237Z,30.95
2023-04-18T04:07:01.306Z,28.64
2023-04-18T04:08:01.323Z,37.38
2023-04-18T04:09:01.355Z,30.24
2023-04-18T04:10:01.413Z,30.93
2023-04-18T04:11:01.382Z,31.96
2023-04-18T04:12:01.408Z,33.02
2023-04-18T04:13:01.458Z,28.32
2023-04-18T04:14:01.420Z,29.21
2023-04-18T04:15:01.465Z,28.68
2023-04-18T04:16:01.558Z,26.06
2023-04-18T04:17:01.558Z,29.71
2023-04-18T04:18:01.594Z,29.82
2023-04-18T04:19:01.538Z,30.73
2023-04-18T04:20:01.712Z,28.29
2023-04-18T04:21:01.611Z,30.19
2023-04-18T04:22:01.627Z,28.86
2023-04-18T04:23:01.648Z,32.21
2023-04-18T04:24:01.666Z,29.47
2023-04-18T04:25:01.666Z,30.27
2023-04-18T04:26:01.764Z,28.41
2023-04-18T04:27:01.695Z,33.99
2023-04-18T04:28:01.724Z,29.92
2023-04-18T04:29:01.748Z,25.95
2023-04-18T04:30:01.764Z,30.85
2023-04-18T04:31:01.814Z,28.79
2023-04-18T04:32:01.910Z,28.58
2023-04-18T04:33:02.015Z,29.02
2023-04-18T04:34:02.408Z,28.98
2023-04-18T04:35:01.905Z,31.28
2023-04-18T04:36:01.918Z,30.77
2023-04-18T04:37:01.948Z,26.34
2023-04-18T04:38:01.976Z,32.09
2023-04-18T04:39:01.993Z,28.99
2023-04-18T04:40:02.018Z,28.94
2023-04-18T04:41:02.089Z,31.54
2023-04-18T04:42:02.030Z,26.91
2023-04-18T04:43:02.046Z,32.36
2023-04-18T04:44:02.090Z,29.44
2023-04-18T04:45:02.179Z,31.42
2023-04-18T04:46:02.212Z,30.95
2023-04-18T04:47:02.190Z,25.98
2023-04-18T04:48:02.342Z,31.63
2023-04-18T04:49:02.261Z,29.32
2023-04-18T04:50:02.330Z,31.97
2023-04-18T04:51:02.318Z,30.45
2023-04-18T04:52:02.338Z,33.99
2023-04-18T04:53:02.339Z,31.44
2023-04-18T04:54:02.358Z,33.14
2023-04-18T04:55:02.401Z,30.06
2023-04-18T04:56:02.424Z,31.37
2023-04-18T04:57:02.435Z,32.39
2023-04-18T04:58:02.454Z,31.10
2023-04-18T04:59:02.506Z,29.90
2023-04-18T05:00:02.538Z,30.37
2023-04-18T05:01:02.656Z,29.30
2023-04-18T05:02:02.664Z,25.02
2023-04-18T05:03:02.831Z,33.58
2023-04-18T05:04:02.818Z,32.11
2023-04-18T05:05:02.824Z,29.74
2023-04-18T05:06:02.716Z,32.22
2023-04-18T05:07:02.749Z,27.57
2023-04-18T05:08:02.782Z,32.57
2023-04-18T05:09:02.812Z,30.08
2023-04-18T05:10:02.899Z,32.75
2023-04-18T05:11:02.862Z,30.67
2023-04-18T05:12:02.907Z,31.21
2023-04-18T05:13:02.926Z,29.87
2023-04-18T05:14:02.949Z,28.61
2023-04-18T05:15:02.988Z,29.88
2023-04-18T05:16:02.999Z,32.29
2023-04-18T05:17:03.041Z,27.62
2023-04-18T05:18:03.094Z,29.03
2023-04-18T05:19:03.067Z,29.47
2023-04-18T05:20:03.095Z,31.48
2023-04-18T05:21:03.106Z,28.95
2023-04-18T05:22:03.176Z,31.11
2023-04-18T05:23:03.163Z,30.89
2023-04-18T05:24:03.239Z,31.43
2023-04-18T05:25:03.244Z,30.88
2023-04-18T05:26:03.273Z,31.10
2023-04-18T05:27:03.316Z,29.86
2023-04-18T05:28:03.284Z,29.74
2023-04-18T05:29:03.359Z,32.35
2023-04-18T05:30:03.419Z,32.77
2023-04-18T05:31:03.510Z,27.80
2023-04-18T05:32:03.431Z,28.08
2023-04-18T05:33:03.556Z,28.33
2023-04-18T05:34:03.467Z,30.95
2023-04-18T05:35:03.528Z,34.01
2023-04-18T05:36:03.541Z,29.18
2023-04-18T05:37:03.567Z,30.48
2023-04-18T05:38:03.581Z,30.57
2023-04-18T05:39:03.615Z,32.84
2023-04-18T05:40:03.841Z,39.45
2023-04-18T05:41:03.674Z,39.52
2023-04-18T05:42:03.714Z,45.38
2023-04-18T05:43:03.716Z,49.12
2023-04-18T05:44:05.778Z,46.52
2023-04-18T05:45:04.770Z,47.12
2023-04-18T05:46:03.760Z,51.21
2023-04-18T05:47:03.717Z,56.11
2023-04-18T05:48:03.805Z,68.28
2023-04-18T05:49:03.727Z,79.61
2023-04-18T05:50:03.748Z,84.37
2023-04-18T05:51:03.721Z,94.59
2023-04-18T05:52:03.698Z,107.10
2023-04-18T05:53:03.721Z,98.39
2023-04-18T05:54:03.689Z,87.94
2023-04-18T05:55:03.705Z,77.33
2023-04-18T05:56:03.817Z,71.37
2023-04-18T05:57:04.780Z,62.77
2023-04-18T05:58:03.652Z,54.86
2023-04-18T05:59:03.694Z,48.81
2023-04-18T06:00:03.643Z,42.03
2023-04-18T06:01:03.626Z,34.51
2023-04-18T06:02:03.718Z,30.63
2023-04-18T06:03:03.812Z,33.73
2023-04-18T06:04:03.791Z,32.54
2023-04-18T06:05:03.881Z,37.83
2023-04-18T06:06:03.713Z,39.34
2023-04-18T06:07:03.722Z,43.68
2023-04-18T06:08:03.785Z,45.59
2023-04-18T06:09:03.787Z,49.44
2023-04-18T06:10:03.857Z,57.87
2023-04-18T06:11:03.875Z,60.83
2023-04-18T06:12:03.968Z,61.83
2023-04-18T06:13:03.915Z,68.30
2023-04-18T06:14:03.906Z,76.06
2023-04-18T06:15:03.931Z,84.53
2023-04-18T06:16:03.996Z,89.80
2023-04-18T06:17:03.965Z,90.40
2023-04-18T06:18:03.965Z,102.29
2023-04-18T06:19:03.976Z,117.38
2023-04-18T06:20:04.050Z,133.23
2023-04-18T06:21:04.088Z,138.32
2023-04-18T06:22:04.159Z,144.85
2023-04-18T06:23:04.182Z,143.55
2023-04-18T06:24:04.252Z,147.94
2023-04-18T06:25:04.266Z,162.00
2023-04-18T06:26:04.317Z,165.70
2023-04-18T06:27:04.352Z,169.72
2023-04-18T06:28:04.395Z,170.67
2023-04-18T06:29:04.398Z,174.25
2023-04-18T06:30:04.439Z,182.01
2023-04-18T06:31:04.442Z,187.36
2023-04-18T06:32:04.795Z,193.26
2023-04-18T06:33:04.475Z,203.11
2023-04-18T06:34:04.484Z,207.86
2023-04-18T06:35:04.504Z,215.56
2023-04-18T06:36:04.521Z,223.79
2023-04-18T06:37:04.502Z,229.30
2023-04-18T06:38:04.556Z,237.01
2023-04-18T06:39:04.522Z,244.64
2023-04-18T06:40:04.554Z,248.44
2023-04-18T06:41:04.553Z,247.74
2023-04-18T06:42:04.569Z,250.53
2023-04-18T06:43:04.591Z,249.00
2023-04-18T06:44:04.905Z,248.30
2023-04-18T06:45:04.890Z,307.18
2023-04-18T06:46:04.810Z,295.58
2023-04-18T06:47:04.648Z,251.69
2023-04-18T06:48:04.729Z,240.69
2023-04-18T06:49:04.656Z,227.50
2023-04-18T06:50:04.688Z,208.44
2023-04-18T06:51:04.717Z,174.46
2023-04-18T06:52:04.737Z,143.35
2023-04-18T06:53:04.782Z,121.35
2023-04-18T06:54:04.760Z,102.44
2023-04-18T06:55:04.847Z,92.74
2023-04-18T06:56:04.833Z,115.85
2023-04-18T06:57:04.833Z,123.91
2023-04-18T06:58:04.964Z,118.79
2023-04-18T06:59:04.932Z,105.56
2023-04-18T07:00:04.953Z,96.28
2023-04-18T07:01:05.020Z,95.67
2023-04-18T07:02:05.070Z,99.09
2023-04-18T07:03:05.092Z,94.30
2023-04-18T07:04:05.110Z,95.45
2023-04-18T07:05:05.047Z,96.29
2023-04-18T07:06:05.063Z,89.56
2023-04-18T07:07:05.113Z,94.33
2023-04-18T07:08:05.182Z,94.48
2023-04-18T07:09:05.202Z,90.08
2023-04-18T07:10:05.241Z,81.83
2023-04-18T07:11:05.309Z,86.43
2023-04-18T07:12:05.288Z,89.06
2023-04-18T07:13:05.264Z,78.85
2023-04-18T07:14:05.289Z,80.35
2023-04-18T07:15:05.313Z,78.83
2023-04-18T07:16:05.401Z,76.80
2023-04-18T07:17:05.437Z,75.70
2023-04-18T07:18:05.364Z,72.83
2023-04-18T07:19:05.348Z,72.91
2023-04-18T07:20:05.344Z,75.77
2023-04-18T07:21:05.390Z,77.22
2023-04-18T07:22:05.410Z,77.52
2023-04-18T07:23:05.490Z,74.11
2023-04-18T07:24:05.525Z,74.63
2023-04-18T07:25:05.880Z,75.00
2023-04-18T07:26:05.732Z,72.22
2023-04-18T07:27:05.670Z,75.01
2023-04-18T07:28:05.718Z,74.95
2023-04-18T07:29:05.768Z,78.48
2023-04-18T07:30:05.789Z,77.62
2023-04-18T07:31:05.995Z,76.50
2023-04-18T07:32:08.142Z,75.75
2023-04-18T07:33:05.925Z,77.54
2023-04-18T07:34:05.856Z,74.20
2023-04-18T07:35:05.841Z,82.01
2023-04-18T07:36:05.835Z,80.18
2023-04-18T07:37:05.842Z,79.50
2023-04-18T07:38:05.800Z,74.10
2023-04-18T07:39:05.791Z,75.47
2023-04-18T07:40:05.835Z,77.51
2023-04-18T07:41:06.693Z,78.17
2023-04-18T07:42:06.352Z,122.71
2023-04-18T07:43:06.332Z,120.97
2023-04-18T07:44:05.769Z,113.93
2023-04-18T07:45:05.790Z,106.63
2023-04-18T07:46:05.935Z,112.07
2023-04-18T07:47:05.776Z,113.86
2023-04-18T07:48:06.049Z,123.79
2023-04-18T07:49:05.756Z,121.44
2023-04-18T07:50:05.745Z,127.89
2023-04-18T07:51:05.722Z,133.11
2023-04-18T07:52:05.730Z,138.34
2023-04-18T07:53:05.714Z,141.29
2023-04-18T07:54:05.746Z,146.71
2023-04-18T07:55:05.711Z,151.99
2023-04-18T07:56:05.727Z,155.08
2023-04-18T07:57:05.685Z,154.80
2023-04-18T07:58:05.688Z,158.52
2023-04-18T07:59:05.651Z,162.02
2023-04-18T08:00:05.687Z,165.21
2023-04-18T08:01:05.683Z,167.03
2023-04-18T08:02:05.705Z,170.43
2023-04-18T08:03:05.743Z,173.11
2023-04-18T08:04:05.812Z,175.45
2023-04-18T08:05:05.868Z,177.71
2023-04-18T08:06:05.645Z,178.26
2023-04-18T08:07:05.625Z,183.44
2023-04-18T08:08:05.606Z,183.01
2023-04-18T08:09:05.629Z,183.97
2023-04-18T08:10:05.610Z,187.49
2023-04-18T08:11:05.620Z,189.34
2023-04-18T08:12:05.671Z,192.72
2023-04-18T08:13:05.583Z,193.26
2023-04-18T08:14:05.564Z,196.12
2023-04-18T08:15:05.610Z,197.30
2023-04-18T08:16:05.640Z,200.78
2023-04-18T08:17:05.613Z,201.10
2023-04-18T08:18:05.723Z,205.54
2023-04-18T08:19:05.729Z,206.16
2023-04-18T08:20:05.906Z,204.82
2023-04-18T08:21:05.818Z,208.03
2023-04-18T08:22:05.858Z,209.31
2023-04-18T08:23:09.556Z,211.72
2023-04-18T08:24:06.904Z,211.85
2023-04-18T08:25:05.999Z,212.27
2023-04-18T08:26:05.936Z,213.76
2023-04-18T08:27:05.846Z,215.34
2023-04-18T08:28:05.877Z,215.56
2023-04-18T08:29:05.850Z,217.27
2023-04-18T08:30:05.829Z,219.91
2023-04-18T08:31:05.876Z,219.46
2023-04-18T08:32:05.868Z,219.91
2023-04-18T08:33:05.876Z,222.47
2023-04-18T08:34:05.883Z,223.42
2023-04-18T08:35:05.904Z,224.88
2023-04-18T08:36:06.408Z,228.91
2023-04-18T08:37:06.058Z,224.23
2023-04-18T08:38:06.084Z,221.92
2023-04-18T08:39:06.140Z,226.76
2023-04-18T08:40:06.224Z,231.52
2023-04-18T08:41:06.208Z,239.41
2023-04-18T08:42:06.273Z,242.63
2023-04-18T08:43:06.321Z,241.73
2023-04-18T08:44:06.339Z,243.71
2023-04-18T08:45:06.392Z,220.82
2023-04-18T08:46:06.954Z,150.08
2023-04-18T08:47:06.460Z,119.95
2023-04-18T08:48:06.505Z,118.46
2023-04-18T08:49:06.462Z,116.96
2023-04-18T08:50:06.482Z,123.67
2023-04-18T08:51:06.889Z,119.76
2023-04-18T08:52:06.733Z,139.31
2023-04-18T08:53:06.585Z,131.95
2023-04-18T08:54:06.643Z,126.33
2023-04-18T08:55:06.730Z,96.39
2023-04-18T08:56:06.677Z,61.20
2023-04-18T08:57:06.740Z,39.70
2023-04-18T08:58:06.745Z,25.00
2023-04-18T08:59:06.828Z,24.64
2023-04-18T09:00:06.867Z,25.00
2023-04-18T09:01:06.979Z,25.41
2023-04-18T09:02:06.941Z,24.85
2023-04-18T09:03:07.167Z,25.00
2023-04-18T09:04:07.014Z,32.17
2023-04-18T09:05:06.944Z,35.10
2023-04-18T09:06:06.999Z,41.18
2023-04-18T09:07:06.984Z,47.50
2023-04-18T09:08:07.117Z,50.69
2023-04-18T09:09:07.086Z,52.27
2023-04-18T09:10:07.166Z,67.21
2023-04-18T09:11:07.185Z,78.71
2023-04-18T09:12:07.235Z,76.91
2023-04-18T09:13:07.230Z,89.49
2023-04-18T09:14:07.287Z,98.16
2023-04-18T09:15:07.292Z,101.16
2023-04-18T09:16:07.297Z,110.08
2023-04-18T09:17:07.352Z,117.90
2023-04-18T09:18:07.384Z,123.68
2023-04-18T09:19:07.374Z,133.72
2023-04-18T09:20:07.376Z,138.92
2023-04-18T09:21:07.400Z,139.55
2023-04-18T09:22:07.417Z,142.59
2023-04-18T09:23:07.456Z,146.52
2023-04-18T09:24:07.461Z,148.91
2023-04-18T09:25:07.487Z,151.37
2023-04-18T09:26:07.533Z,153.61
2023-04-18T09:27:07.576Z,154.15
2023-04-18T09:28:07.609Z,155.19
2023-04-18T09:29:07.619Z,155.93
2023-04-18T09:30:07.639Z,161.04
2023-04-18T09:31:07.980Z,160.13
2023-04-18T09:32:07.717Z,162.90
2023-04-18T09:33:07.870Z,170.06
2023-04-18T09:34:07.843Z,176.18
2023-04-18T09:35:07.906Z,183.42
2023-04-18T09:36:08.408Z,181.76
2023-04-18T09:37:08.057Z,180.50
2023-04-18T09:38:08.078Z,180.54
2023-04-18T09:39:08.086Z,178.97
2023-04-18T09:40:08.413Z,179.84
2023-04-18T09:41:08.470Z,173.12
2023-04-18T09:42:08.271Z,169.46
2023-04-18T09:43:08.311Z,171.88
2023-04-18T09:44:08.365Z,174.94
2023-04-18T09:45:08.413Z,178.81
2023-04-18T09:46:08.463Z,178.53
2023-04-18T09:47:08.435Z,179.82
2023-04-18T09:48:08.496Z,182.31
2023-04-18T09:49:10.923Z,182.59
2023-04-18T09:50:08.762Z,188.51
2023-04-18T09:51:08.761Z,203.61
2023-04-18T09:52:08.776Z,203.10
2023-04-18T09:53:08.830Z,199.36
2023-04-18T09:54:08.880Z,197.16
2023-04-18T09:55:08.885Z,197.39
2023-04-18T09:56:08.932Z,197.17
2023-04-18T09:57:08.957Z,197.64
2023-04-18T09:58:08.959Z,199.90
2023-04-18T09:59:09.090Z,198.29
2023-04-18T10:00:09.071Z,197.74
2023-04-18T10:01:09.083Z,199.22
2023-04-18T10:02:09.161Z,199.42
2023-04-18T10:03:09.184Z,198.42
2023-04-18T10:04:09.190Z,198.57
2023-04-18T10:05:09.158Z,200.06
2023-04-18T10:06:09.128Z,199.40
2023-04-18T10:07:09.138Z,198.50
2023-04-18T10:08:09.195Z,199.75
2023-04-18T10:09:09.277Z,200.04
2023-04-18T10:10:09.243Z,201.33
2023-04-18T10:11:09.432Z,200.43
2023-04-18T10:12:09.282Z,199.01
2023-04-18T10:13:09.353Z,200.42
2023-04-18T10:14:09.362Z,201.66
2023-04-18T10:15:09.453Z,202.03
2023-04-18T10:16:09.566Z,202.76
2023-04-18T10:17:09.545Z,198.89
2023-04-18T10:18:09.582Z,200.19
2023-04-18T10:19:09.603Z,200.22
2023-04-18T10:20:09.650Z,200.37
2023-04-18T10:21:09.687Z,200.45
2023-04-18T10:22:09.706Z,199.64
2023-04-18T10:23:09.758Z,198.01
2023-04-18T10:24:09.819Z,197.92
2023-04-18T10:25:09.868Z,196.70
2023-04-18T10:26:09.930Z,196.14
2023-04-18T10:27:09.929Z,195.65
2023-04-18T10:28:09.970Z,196.08
2023-04-18T10:29:10.030Z,195.83
2023-04-18T10:30:10.029Z,195.10
2023-04-18T10:31:10.108Z,195.24
2023-04-18T10:32:10.149Z,196.13
2023-04-18T10:33:18.384Z,197.43
2023-04-18T10:34:11.120Z,197.52
2023-04-18T10:35:10.184Z,192.04
2023-04-18T10:36:10.426Z,188.59
2023-04-18T10:37:10.425Z,186.67
2023-04-18T10:38:10.138Z,192.26
2023-04-18T10:39:10.109Z,189.30
2023-04-18T10:40:10.116Z,189.52
2023-04-18T10:41:10.457Z,191.00
2023-04-18T10:42:10.118Z,194.58
2023-04-18T10:43:10.112Z,200.18
2023-04-18T10:44:10.131Z,202.50
2023-04-18T10:45:10.152Z,205.68
2023-04-18T10:46:23.783Z,206.30
2023-04-18T10:47:11.261Z,206.39
2023-04-18T10:48:10.250Z,200.08
2023-04-18T10:49:10.178Z,202.11
2023-04-18T10:50:10.223Z,201.36
2023-04-18T10:51:10.192Z,202.78
2023-04-18T10:52:11.731Z,205.31
2023-04-18T10:53:10.164Z,207.67
2023-04-18T10:54:10.229Z,206.81
2023-04-18T10:55:10.152Z,196.08
2023-04-18T10:56:10.154Z,199.54
2023-04-18T10:57:10.164Z,206.56
2023-04-18T10:58:10.131Z,205.33
2023-04-18T10:59:10.110Z,208.51
2023-04-18T11:00:10.134Z,208.43
2023-04-18T11:01:10.181Z,209.71
2023-04-18T11:02:10.163Z,210.64
2023-04-18T11:03:10.292Z,218.19
2023-04-18T11:04:10.183Z,216.94
2023-04-18T11:05:10.071Z,223.93
2023-04-18T11:06:10.110Z,227.66
2023-04-18T11:07:10.066Z,227.04
2023-04-18T11:08:10.059Z,235.15
2023-04-18T11:09:10.073Z,237.54
2023-04-18T11:10:10.063Z,240.29
2023-04-18T11:11:10.051Z,243.43
2023-04-18T11:12:10.022Z,249.25
2023-04-18T11:13:10.064Z,249.49
2023-04-18T11:14:10.004Z,249.37
2023-04-18T11:15:10.025Z,248.81
2023-04-18T11:16:10.172Z,250.00
2023-04-18T11:17:10.009Z,249.08
2023-04-18T11:18:10.055Z,250.00
2023-04-18T11:19:09.972Z,251.21
2023-04-18T11:20:09.992Z,249.33
2023-04-18T11:21:09.975Z,249.77
2023-04-18T11:22:10.027Z,249.39
2023-04-18T11:23:09.943Z,248.90
2023-04-18T11:24:09.933Z,250.00
2023-04-18T11:25:09.947Z,249.83
2023-04-18T11:26:09.959Z,249.87
2023-04-18T11:27:09.944Z,248.16
2023-04-18T11:28:09.913Z,248.24
2023-04-18T11:29:09.882Z,249.71
2023-04-18T11:30:09.913Z,248.02
2023-04-18T11:31:10.152Z,250.00
2023-04-18T11:32:10.035Z,241.08
2023-04-18T11:33:09.935Z,244.31
2023-04-18T11:34:09.901Z,243.74
2023-04-18T11:35:09.862Z,244.93
2023-04-18T11:36:09.893Z,244.34
2023-04-18T11:37:09.954Z,243.09
2023-04-18T11:38:09.854Z,242.37
2023-04-18T11:39:09.834Z,241.08
2023-04-18T11:40:09.825Z,239.88
2023-04-18T11:41:09.843Z,237.45
2023-04-18T11:42:09.854Z,237.24
2023-04-18T11:43:09.839Z,235.26
2023-04-18T11:44:09.808Z,232.96
2023-04-18T11:45:09.824Z,231.97
2023-04-18T11:46:09.876Z,230.30
2023-04-18T11:47:09.821Z,228.32
2023-04-18T11:48:09.890Z,227.71
2023-04-18T11:49:09.797Z,225.36
2023-04-18T11:50:09.774Z,222.73
2023-04-18T11:51:09.822Z,216.83
2023-04-18T11:52:09.753Z,216.13
2023-04-18T11:53:09.765Z,214.27
2023-04-18T11:54:09.740Z,213.35
2023-04-18T11:55:09.719Z,212.20
2023-04-18T11:56:09.723Z,212.98
2023-04-18T11:57:09.765Z,211.46
2023-04-18T11:58:09.754Z,211.86
2023-04-18T11:59:09.782Z,218.24
2023-04-18T12:00:09.808Z,216.29
2023-04-18T12:01:09.843Z,212.62
2023-04-18T12:03:11.791Z,215.89
2023-04-18T12:04:10.085Z,215.97
2023-04-18T12:05:10.159Z,214.23
2023-04-18T12:06:09.900Z,212.71
2023-04-18T12:07:09.834Z,211.09
2023-04-18T12:08:09.880Z,208.55
2023-04-18T12:09:09.843Z,207.13
2023-04-18T12:10:09.873Z,204.85
2023-04-18T12:11:09.800Z,205.23
2023-04-18T12:12:09.836Z,204.07
2023-04-18T12:13:09.795Z,202.99
2023-04-18T12:14:09.804Z,198.13
2023-04-18T12:15:09.808Z,198.64
2023-04-18T12:16:09.849Z,198.22
2023-04-18T12:17:09.761Z,198.20
2023-04-18T12:18:09.799Z,194.86
2023-04-18T12:19:09.788Z,195.04
2023-04-18T12:20:09.813Z,190.46
2023-04-18T12:21:09.738Z,186.42
2023-04-18T12:22:09.742Z,186.63
2023-04-18T12:23:09.754Z,189.90
2023-04-18T12:24:09.736Z,191.67
2023-04-18T12:25:09.812Z,190.89
2023-04-18T12:26:09.701Z,190.82
2023-04-18T12:27:09.699Z,189.29
2023-04-18T12:28:09.698Z,190.16
2023-04-18T12:29:09.660Z,188.24
2023-04-18T12:30:09.714Z,188.70
2023-04-18T12:31:09.717Z,188.94
2023-04-18T12:32:09.693Z,185.75
2023-04-18T12:33:09.696Z,183.22
2023-04-18T12:34:09.654Z,181.97
2023-04-18T12:35:09.647Z,185.65
2023-04-18T12:36:09.680Z,183.13
2023-04-18T12:37:09.621Z,181.08
2023-04-18T12:38:09.610Z,182.03
2023-04-18T12:39:09.648Z,182.57
2023-04-18T12:40:09.627Z,181.91
2023-04-18T12:41:09.592Z,181.31
2023-04-18T12:42:09.660Z,181.40
2023-04-18T12:43:09.728Z,181.82
2023-04-18T12:44:09.745Z,182.12